Time;durP1;ratioP1;P1;durP2;ratioP2;P2;SDS_P1;SDS_P2;PMS_P1;PMS_P2;Temp;Humidity;BMP_temperature;BMP_pressure;BME280_temperature;BME280_humidity;BME280_pressure;Samples;Min_cycle;Max_cycle;Signal;HPM_P1;HPM_P2
2023/05/08 00:01:38;;;;;;;0.10;0.10;;;;;;;16.35;71.22;102138.66;5076807;28;20028;-79
2023/05/08 00:04:04;;;;;;;0.10;0.10;;;;;;;16.36;71.70;102145.75;5074389;28;20036;-81
2023/05/08 00:06:30;;;;;;;0.10;0.10;;;;;;;16.37;71.62;102142.16;5067727;28;20593;-80
2023/05/08 00:08:56;;;;;;;0.10;0.10;;;;;;;16.40;71.81;102146.56;5083377;28;20017;-79
2023/05/08 00:11:22;;;;;;;0.32;0.32;;;;;;;16.39;71.83;102148.34;5071543;28;20467;-79
2023/05/08 00:13:48;;;;;;;0.10;0.10;;;;;;;16.42;71.97;102150.94;5083384;28;20020;-80
2023/05/08 00:16:15;;;;;;;0.10;0.10;;;;;;;16.46;71.87;102149.97;5071862;28;20032;-79
2023/05/08 00:18:41;;;;;;;0.10;0.10;;;;;;;16.49;71.64;102157.91;5082711;28;20055;-79
2023/05/08 00:21:07;;;;;;;0.10;0.10;;;;;;;16.56;71.77;102157.78;5070447;28;20055;-80
2023/05/08 00:23:33;;;;;;;0.10;0.10;;;;;;;16.62;72.22;102157.63;5079613;28;20032;-80
2023/05/08 00:25:59;;;;;;;0.10;0.10;;;;;;;16.71;72.40;102156.50;5082959;28;20032;-80
2023/05/08 00:28:26;;;;;;;0.10;0.10;;;;;;;16.79;72.48;102152.72;5080230;28;20512;-80
2023/05/08 00:30:52;;;;;;;0.15;0.15;;;;;;;16.88;72.51;102151.63;5072622;28;20035;-81
2023/05/08 00:33:18;;;;;;;0.10;0.10;;;;;;;16.94;72.62;102142.59;5075210;28;20043;-81
2023/05/08 00:35:44;;;;;;;0.75;0.75;;;;;;;16.98;72.53;102138.91;5081761;28;20025;-80
2023/05/08 00:38:11;;;;;;;0.10;0.10;;;;;;;17.01;72.60;102149.56;5075657;28;20357;-80
2023/05/08 00:40:37;;;;;;;0.10;0.10;;;;;;;17.05;72.52;102151.22;5071771;28;20025;-79
2023/05/08 00:43:03;;;;;;;0.10;0.10;;;;;;;17.09;72.49;102147.53;5069828;28;21627;-81
2023/05/08 00:45:35;;;;;;;0.38;0.38;;;;;;;17.15;72.57;102149.19;5073814;28;20040;-79
2023/05/08 00:48:02;;;;;;;0.10;0.10;;;;;;;17.19;72.46;102147.31;5070194;28;20031;-79
2023/05/08 00:50:30;;;;;;;0.10;0.10;;;;;;;17.20;72.55;102149.94;5074308;28;20033;-79
2023/05/08 00:52:59;;;;;;;0.10;0.10;;;;;;;17.24;72.51;102142.69;5067926;28;20033;-79
2023/05/08 00:55:25;;;;;;;0.50;0.50;;;;;;;17.26;72.44;102144.41;5080186;28;20024;-80
2023/05/08 00:57:51;;;;;;;0.55;0.55;;;;;;;17.29;72.59;102144.31;5076537;28;20504;-79
2023/05/08 01:00:18;;;;;;;0.10;0.10;;;;;;;17.32;72.75;102138.03;5069836;28;20484;-79
2023/05/08 01:02:45;;;;;;;0.20;0.20;;;;;;;17.36;72.66;102146.81;5066839;28;20038;-80
2023/05/08 01:05:12;;;;;;;0.10;0.10;;;;;;;17.38;72.58;102148.53;5074266;28;20043;-77
2023/05/08 01:07:38;;;;;;;0.13;0.13;;;;;;;17.40;72.30;102138.66;5065469;28;20484;-80
2023/05/08 01:10:05;;;;;;;0.10;0.10;;;;;;;17.41;72.33;102147.59;5068231;28;20055;-80
2023/05/08 01:13:05;;;;;;;0.03;0.03;;;;;;;17.50;72.45;102151.81;5082858;28;20032;-79
2023/05/08 01:15:42;;;;;;;0.55;0.55;;;;;;;17.46;72.31;102151.03;5088033;28;20036;-79
2023/05/08 01:21:13;;;;;;;0.10;0.10;;;;;;;17.36;72.19;102145.03;5057141;28;20392;-81
2023/05/08 01:27:00;;;;;;;0.23;0.23;;;;;;;17.25;71.84;102136.41;5060066;27;2087939;-81
2023/05/08 01:29:55;;;;;;;0.30;0.30;;;;;;;17.20;72.19;102136.53;5122316;27;20772;-81
2023/05/08 01:35:20;;;;;;;0.10;0.10;;;;;;;17.12;72.36;102139.44;5129186;27;20390;-80
2023/05/08 01:43:43;;;;;;;0.10;0.10;;;;;;;17.04;72.28;102146.78;5177321;27;20343;-81
2023/05/08 01:46:15;;;;;;;0.00;0.00;;;;;;;17.02;72.32;102155.78;5150008;27;20038;-81
2023/05/08 01:49:06;;;;;;;0.10;0.10;;;;;;;17.04;72.53;102154.81;5162790;27;20497;-81
2023/05/08 01:51:40;;;;;;;0.80;0.68;;;;;;;17.05;72.56;102153.91;5154900;27;20037;-80
2023/05/08 01:54:09;;;;;;;0.10;0.10;;;;;;;17.07;72.46;102160.09;5152875;27;20114;-79
2023/05/08 01:56:38;;;;;;;0.20;0.20;;;;;;;17.08;72.43;102155.63;5158410;27;20030;-81
2023/05/08 01:59:11;;;;;;;0.45;0.45;;;;;;;17.10;72.53;102149.28;5150219;27;20023;-80
2023/05/08 02:01:40;;;;;;;0.10;0.10;;;;;;;17.11;72.54;102156.41;5159499;27;20038;-81
2023/05/08 02:04:08;;;;;;;0.20;0.20;;;;;;;17.11;72.57;102160.91;5157906;27;20038;-81
2023/05/08 02:06:36;;;;;;;0.10;0.10;;;;;;;17.07;72.43;102152.06;5147209;27;20026;-81
2023/05/08 02:09:02;;;;;;;0.00;0.00;;;;;;;17.04;72.45;102159.31;5153018;27;20038;-81
2023/05/08 02:11:30;;;;;;;0.10;0.10;;;;;;;16.98;72.16;102161.22;5159684;27;20371;-80
2023/05/08 02:14:00;;;;;;;0.20;0.20;;;;;;;16.94;72.41;102159.53;5155569;27;20049;-79
2023/05/08 02:16:27;;;;;;;0.10;0.10;;;;;;;16.91;72.33;102164.97;5148793;27;20027;-79
2023/05/08 02:18:55;;;;;;;1.38;1.27;;;;;;;16.86;72.52;102160.59;5166169;27;20027;-78
2023/05/08 02:21:24;;;;;;;0.43;0.43;;;;;;;16.84;72.24;102167.81;5155916;27;20470;-81
2023/05/08 02:23:52;;;;;;;0.17;0.17;;;;;;;16.81;72.18;102164.28;5159553;27;20018;-81
2023/05/08 02:26:21;;;;;;;0.10;0.10;;;;;;;16.81;72.27;102161.59;5156511;27;20039;-80
2023/05/08 02:28:49;;;;;;;0.35;0.35;;;;;;;16.84;72.47;102173.16;5155805;27;20528;-80
2023/05/08 02:31:16;;;;;;;0.35;0.35;;;;;;;16.86;72.39;102163.28;5160635;27;20019;-79
2023/05/08 02:33:44;;;;;;;0.38;0.38;;;;;;;16.88;72.74;102164.13;5158912;27;20015;-80
2023/05/08 02:36:12;;;;;;;0.15;0.15;;;;;;;16.93;72.52;102172.94;5158011;27;20052;-82
2023/05/08 02:38:42;;;;;;;0.10;0.10;;;;;;;16.95;72.72;102177.34;5160351;27;20034;-81
2023/05/08 02:41:10;;;;;;;1.00;0.95;;;;;;;17.00;72.48;102187.06;5155083;27;20035;-82
2023/05/08 02:43:36;;;;;;;0.10;0.10;;;;;;;17.03;72.49;102182.50;5155227;27;20047;-81
2023/05/08 02:46:26;;;;;;;0.10;0.10;;;;;;;17.13;72.46;102184.03;5150899;27;20632;-81
2023/05/08 02:49:02;;;;;;;0.20;0.20;;;;;;;17.12;72.49;102174.25;5144042;27;20023;-81
2023/05/08 02:54:13;;;;;;;0.88;0.88;;;;;;;17.11;72.36;102167.13;5067526;28;20381;-81
2023/05/08 02:56:46;;;;;;;0.00;0.00;;;;;;;17.12;72.54;102168.88;5056848;28;20133;-80
2023/05/08 02:59:19;;;;;;;0.17;0.17;;;;;;;17.10;72.30;102169.84;5052401;28;20029;-81
2023/05/08 03:04:35;;;;;;;0.10;0.10;;;;;;;17.10;72.31;102159.13;5076063;28;20131;-80
2023/05/08 03:07:03;;;;;;;0.20;0.20;;;;;;;17.06;72.35;102152.97;5066345;28;20043;-80
2023/05/08 03:09:38;;;;;;;0.80;0.80;;;;;;;17.08;72.25;102156.47;5057052;28;20498;-80
2023/05/08 03:12:09;;;;;;;0.22;0.22;;;;;;;17.06;72.53;102157.44;5055313;28;20033;-80
2023/05/08 03:14:44;;;;;;;0.17;0.17;;;;;;;17.04;72.36;102154.81;5055700;28;20090;-79
2023/05/08 03:17:14;;;;;;;0.20;0.20;;;;;;;17.00;72.22;102150.47;5054724;28;20287;-79
2023/05/08 03:19:44;;;;;;;0.82;0.82;;;;;;;16.98;72.41;102149.63;5059255;28;20033;-79
2023/05/08 03:22:13;;;;;;;1.15;0.63;;;;;;;16.97;72.40;102147.84;5055965;28;20459;-79
2023/05/08 03:24:41;;;;;;;0.65;0.65;;;;;;;16.96;72.52;102155.00;5058432;28;20033;-78
2023/05/08 03:27:08;;;;;;;0.08;0.08;;;;;;;16.94;72.19;102145.28;5055285;28;20041;-79
2023/05/08 03:29:37;;;;;;;0.20;0.20;;;;;;;16.93;72.51;102151.53;5058554;28;20036;-80
2023/05/08 03:32:04;;;;;;;0.08;0.08;;;;;;;16.91;72.26;102153.34;5055039;28;20111;-78
2023/05/08 03:34:31;;;;;;;0.35;0.35;;;;;;;16.88;72.49;102148.06;5060266;28;20082;-78
2023/05/08 03:36:57;;;;;;;0.85;0.85;;;;;;;16.84;72.40;102147.25;5058598;28;20402;-80
2023/05/08 03:39:25;;;;;;;0.10;0.10;;;;;;;16.83;72.43;102150.84;5068909;28;20032;-80
2023/05/08 03:41:53;;;;;;;0.00;0.00;;;;;;;16.81;72.67;102150.91;5072733;28;20095;-80
2023/05/08 03:44:20;;;;;;;0.25;0.25;;;;;;;16.80;72.48;102146.47;5062836;28;20033;-81
2023/05/08 03:46:49;;;;;;;1.48;1.17;;;;;;;16.75;72.42;102153.72;5065482;28;20052;-79
2023/05/08 03:49:17;;;;;;;0.90;0.90;;;;;;;16.67;72.21;102155.69;5062601;28;20124;-79
2023/05/08 03:51:44;;;;;;;0.70;0.70;;;;;;;16.63;72.42;102151.34;5066237;28;20370;-80
2023/05/08 03:54:10;;;;;;;1.17;1.17;;;;;;;16.57;72.56;102148.84;5065210;28;20025;-79
2023/05/08 03:56:37;;;;;;;0.25;0.25;;;;;;;16.54;72.33;102154.28;5071342;28;20036;-79
2023/05/08 03:59:16;;;;;;;0.43;0.43;;;;;;;16.52;72.36;102150.75;5067954;28;20056;-79
2023/05/08 04:01:53;;;;;;;0.22;0.22;;;;;;;16.48;72.57;102156.16;5063239;28;20028;-80
2023/05/08 04:04:44;;;;;;;0.05;0.05;;;;;;;16.48;72.54;102153.47;5070135;28;20034;-78
2023/05/08 04:07:22;;;;;;;0.10;0.10;;;;;;;16.46;72.48;102158.00;5063709;28;20082;-79
2023/05/08 04:12:44;;;;;;;0.22;0.22;;;;;;;16.45;72.83;102148.22;5167488;27;21120;-82
2023/05/08 04:15:17;;;;;;;0.30;0.30;;;;;;;16.44;72.67;102145.59;5123760;27;20061;-82
2023/05/08 04:17:52;;;;;;;0.20;0.20;;;;;;;16.44;72.62;102146.44;5132547;27;20056;-82
2023/05/08 04:20:20;;;;;;;0.25;0.25;;;;;;;16.41;72.62;102148.31;5127770;27;20027;-82
2023/05/08 04:22:49;;;;;;;0.20;0.20;;;;;;;16.38;72.35;102154.63;5130716;27;20031;-81
2023/05/08 04:25:17;;;;;;;0.85;0.85;;;;;;;16.35;72.30;102160.06;5126580;27;20053;-81
2023/05/08 04:27:44;;;;;;;0.13;0.13;;;;;;;16.31;72.53;102153.88;5134533;27;20058;-81
2023/05/08 04:30:11;;;;;;;0.32;0.32;;;;;;;16.31;72.46;102153.00;5131338;27;20020;-80
2023/05/08 04:32:38;;;;;;;0.47;0.47;;;;;;;16.31;72.87;102159.25;5131135;27;20027;-81
2023/05/08 04:35:05;;;;;;;0.73;0.73;;;;;;;16.32;72.52;102168.13;5129116;27;20351;-81
2023/05/08 04:37:31;;;;;;;0.10;0.10;;;;;;;16.36;72.95;102167.13;5132445;27;20483;-80
2023/05/08 04:39:58;;;;;;;0.30;0.30;;;;;;;16.36;72.73;102177.84;5125301;27;20036;-81
2023/05/08 04:42:25;;;;;;;0.85;0.85;;;;;;;16.34;72.34;102177.88;5130853;27;20048;-81
2023/05/08 04:44:52;;;;;;;1.13;1.13;;;;;;;16.32;72.25;102174.38;5130918;27;20032;-81
2023/05/08 04:47:19;;;;;;;0.80;0.47;;;;;;;16.28;72.53;102185.16;5123798;27;20055;-81
2023/05/08 04:49:45;;;;;;;1.27;0.55;;;;;;;16.27;72.34;102178.06;5127826;27;20494;-78
2023/05/08 04:52:11;;;;;;;0.68;0.40;;;;;;;16.27;72.47;102178.06;5133385;27;20359;-80
2023/05/08 04:54:37;;;;;;;0.30;0.30;;;;;;;16.28;72.35;102175.34;5133994;27;20027;-81
2023/05/08 04:57:03;;;;;;;0.55;0.55;;;;;;;16.29;72.71;102182.47;5133052;27;20027;-81
2023/05/08 04:59:29;;;;;;;0.85;0.85;;;;;;;16.29;72.49;102181.59;5125963;27;20089;-81
2023/05/08 05:01:56;;;;;;;0.20;0.20;;;;;;;16.30;72.68;102186.03;5128302;27;20057;-82
2023/05/08 05:04:22;;;;;;;0.08;0.08;;;;;;;16.29;72.48;102189.63;5131539;27;20027;-80
2023/05/08 05:06:48;;;;;;;1.08;1.08;;;;;;;16.27;72.67;102194.97;5131851;27;20028;-82
2023/05/08 05:09:15;;;;;;;0.20;0.20;;;;;;;16.26;72.27;102192.34;5129459;27;20046;-82
2023/05/08 05:11:41;;;;;;;0.10;0.10;;;;;;;16.26;72.69;102192.34;5134687;27;20051;-78
2023/05/08 05:14:07;;;;;;;0.25;0.25;;;;;;;16.25;72.41;102196.81;5136951;27;20064;-78
2023/05/08 05:16:33;;;;;;;0.30;0.30;;;;;;;16.26;72.62;102203.94;5139452;27;20034;-79
2023/05/08 05:18:59;;;;;;;0.38;0.38;;;;;;;16.26;72.58;102195.00;5134670;27;20054;-80
2023/05/08 05:21:26;;;;;;;10.55;1.27;;;;;;;16.27;72.53;102205.66;5127954;27;20453;-81
2023/05/08 05:23:53;;;;;;;0.10;0.10;;;;;;;16.30;72.63;102208.28;5120109;27;20020;-79
2023/05/08 05:26:20;;;;;;;3.75;0.93;;;;;;;16.32;72.75;102197.56;5116023;28;20023;-79
2023/05/08 05:28:47;;;;;;;0.57;0.57;;;;;;;16.35;72.72;102213.53;5117430;28;21148;-78
2023/05/08 05:31:13;;;;;;;0.10;0.10;;;;;;;16.35;72.75;102202.84;5123148;27;20012;-79
2023/05/08 05:33:39;;;;;;;0.30;0.30;;;;;;;16.37;72.47;102206.34;5120826;27;20038;-79
2023/05/08 05:36:06;;;;;;;0.20;0.20;;;;;;;16.39;72.51;102209.88;5119741;28;20040;-79
2023/05/08 05:38:32;;;;;;;0.10;0.10;;;;;;;16.40;72.68;102208.97;5116947;28;20038;-79
2023/05/08 05:40:58;;;;;;;0.35;0.35;;;;;;;16.43;72.72;102222.25;5119261;28;20020;-80
2023/05/08 05:43:24;;;;;;;0.10;0.10;;;;;;;16.46;72.43;102222.22;5118883;28;20063;-79
2023/05/08 05:45:50;;;;;;;0.25;0.25;;;;;;;16.48;72.66;102225.72;5118002;27;20036;-79
2023/05/08 05:48:16;;;;;;;1.38;0.55;;;;;;;16.51;72.34;102227.47;5119427;28;20033;-78
2023/05/08 05:50:43;;;;;;;0.63;0.63;;;;;;;16.50;72.28;102223.03;5115766;28;20019;-80
2023/05/08 05:53:09;;;;;;;0.68;0.68;;;;;;;16.50;72.45;102234.59;5117860;28;20559;-80
2023/05/08 05:55:35;;;;;;;0.10;0.10;;;;;;;16.50;72.51;102234.59;5116780;28;20081;-80
2023/05/08 05:58:01;;;;;;;5.45;0.85;;;;;;;16.48;72.00;102240.88;5116452;27;20078;-81
2023/05/08 06:00:27;;;;;;;1.05;1.00;;;;;;;16.49;72.32;102240.84;5111845;28;20024;-81
2023/05/08 06:02:53;;;;;;;0.77;0.77;;;;;;;16.52;72.53;102245.25;5116355;28;20028;-80
2023/05/08 06:05:19;;;;;;;0.88;0.88;;;;;;;16.54;72.08;102250.59;5115696;28;20067;-82
2023/05/08 06:07:45;;;;;;;0.80;0.52;;;;;;;16.52;72.20;102249.72;5114875;28;20027;-82
2023/05/08 06:10:12;;;;;;;3.33;1.20;;;;;;;16.49;72.02;102254.22;5115038;28;20060;-80
2023/05/08 06:12:38;;;;;;;1.40;1.33;;;;;;;16.46;71.78;102254.31;5116994;28;20039;-81
2023/05/08 06:15:04;;;;;;;0.95;0.95;;;;;;;16.41;72.13;102256.22;5116509;28;20509;-80
2023/05/08 06:17:31;;;;;;;1.55;0.60;;;;;;;16.37;72.07;102264.31;5111519;28;20047;-81
2023/05/08 06:19:56;;;;;;;1.98;0.75;;;;;;;16.34;71.90;102250.09;5122857;27;20036;-81
2023/05/08 06:22:24;;;;;;;0.10;0.10;;;;;;;16.33;72.23;102253.69;5113531;28;20031;-80
2023/05/08 06:24:52;;;;;;;0.80;0.80;;;;;;;16.35;72.01;102251.00;5114440;27;20028;-81
2023/05/08 06:27:19;;;;;;;0.20;0.20;;;;;;;16.38;72.03;102258.06;5120420;28;20035;-82
2023/05/08 06:29:47;;;;;;;0.45;0.45;;;;;;;16.41;72.09;102256.22;5120191;28;20034;-81
2023/05/08 06:32:13;;;;;;;0.68;0.68;;;;;;;16.47;72.13;102250.72;5121425;28;20429;-80
2023/05/08 06:34:39;;;;;;;0.50;0.50;;;;;;;16.49;72.14;102253.34;5117506;28;20560;-82
2023/05/08 06:37:05;;;;;;;1.58;1.50;;;;;;;16.55;72.18;102252.31;5118459;28;20528;-82
2023/05/08 06:39:31;;;;;;;0.40;0.40;;;;;;;16.61;72.26;102246.84;5120706;28;20020;-79
2023/05/08 06:41:57;;;;;;;0.32;0.32;;;;;;;16.70;71.93;102246.63;5114091;28;20020;-81
2023/05/08 06:44:23;;;;;;;1.35;1.30;;;;;;;16.77;72.14;102250.94;5110726;28;20034;-81
2023/05/08 06:46:49;;;;;;;0.30;0.30;;;;;;;16.90;72.20;102247.97;5119825;28;20043;-80
2023/05/08 06:49:15;;;;;;;0.20;0.20;;;;;;;17.00;71.95;102244.19;5117978;28;20107;-80
2023/05/08 06:51:41;;;;;;;0.52;0.52;;;;;;;17.10;71.68;102240.34;5118490;28;20028;-80
2023/05/08 06:54:07;;;;;;;0.20;0.20;;;;;;;17.21;71.89;102244.53;5108025;28;20031;-82
2023/05/08 06:56:34;;;;;;;1.95;1.85;;;;;;;17.28;71.96;102246.16;5109182;28;20036;-80
2023/05/08 06:59:01;;;;;;;0.68;0.68;;;;;;;17.30;71.53;102242.50;5109841;28;20038;-81
2023/05/08 07:01:27;;;;;;;0.65;0.65;;;;;;;17.30;71.28;102245.19;5111339;28;20032;-81
2023/05/08 07:03:53;;;;;;;0.22;0.22;;;;;;;17.32;71.04;102239.81;5109702;28;20051;-81
2023/05/08 07:06:19;;;;;;;0.20;0.20;;;;;;;17.36;70.78;102249.50;5113090;28;20064;-80
2023/05/08 07:08:45;;;;;;;1.05;1.05;;;;;;;17.43;71.12;102247.53;5116296;28;20047;-79
2023/05/08 07:11:11;;;;;;;0.80;0.80;;;;;;;17.57;70.91;102252.53;5114672;28;20036;-80
2023/05/08 07:13:37;;;;;;;1.10;1.00;;;;;;;17.72;71.04;102244.09;5123222;27;20392;-81
2023/05/08 07:16:09;;;;;;;0.10;0.10;;;;;;;17.86;70.69;102238.34;5122399;27;20093;-81
2023/05/08 07:18:35;;;;;;;0.82;0.82;;;;;;;17.93;70.40;102234.56;5116230;28;20102;-81
2023/05/08 07:21:02;;;;;;;0.40;0.40;;;;;;;18.04;70.32;102233.41;5116597;28;20024;-81
2023/05/08 07:23:28;;;;;;;1.10;1.10;;;;;;;18.10;70.06;102233.22;5124107;28;20023;-81
2023/05/08 07:25:54;;;;;;;1.48;0.82;;;;;;;18.10;69.51;102228.72;5105124;28;20582;-80
2023/05/08 07:28:21;;;;;;;1.25;0.85;;;;;;;18.10;69.33;102235.91;5115928;28;20036;-81
2023/05/08 07:30:47;;;;;;;1.15;1.15;;;;;;;18.10;69.26;102234.09;5114138;28;20039;-81
2023/05/08 07:33:13;;;;;;;1.10;1.02;;;;;;;18.13;69.56;102232.25;5120553;28;20080;-81
2023/05/08 07:35:40;;;;;;;0.17;0.17;;;;;;;18.15;69.42;102219.69;5120131;28;20381;-80
2023/05/08 07:38:06;;;;;;;1.50;1.42;;;;;;;18.17;68.70;102221.38;5116821;27;20035;-80
2023/05/08 07:40:32;;;;;;;0.57;0.57;;;;;;;18.22;68.88;102221.25;5120060;28;20055;-80
2023/05/08 07:42:58;;;;;;;0.40;0.40;;;;;;;18.25;68.89;102215.78;5120468;28;20032;-80
2023/05/08 07:45:25;;;;;;;0.57;0.57;;;;;;;18.28;68.96;102221.06;5114840;28;20099;-80
2023/05/08 07:47:53;;;;;;;0.45;0.45;;;;;;;18.31;68.81;102225.47;5116230;27;20032;-80
2023/05/08 07:50:20;;;;;;;0.57;0.57;;;;;;;18.35;69.09;102217.25;5120499;28;20039;-79
2023/05/08 07:52:47;;;;;;;1.40;0.57;;;;;;;18.40;69.11;102220.66;5123846;28;20032;-79
2023/05/08 07:55:13;;;;;;;0.32;0.32;;;;;;;18.46;68.72;102224.97;5127505;28;20024;-80
2023/05/08 07:57:41;;;;;;;1.70;1.60;;;;;;;18.55;69.01;102223.81;5118059;28;20032;-81
2023/05/08 08:00:10;;;;;;;0.57;0.57;;;;;;;18.61;68.73;102234.34;5110223;28;20019;-81
2023/05/08 08:02:37;;;;;;;0.20;0.20;;;;;;;18.63;68.31;102229.81;5112524;28;20026;-81
2023/05/08 08:05:04;;;;;;;0.25;0.25;;;;;;;18.60;68.26;102232.59;5111807;28;20027;-81
2023/05/08 08:07:32;;;;;;;0.50;0.50;;;;;;;18.59;68.74;102233.50;5108412;28;20023;-80
2023/05/08 08:09:59;;;;;;;1.30;1.20;;;;;;;18.62;69.04;102235.22;5106622;28;20023;-77
2023/05/08 08:12:25;;;;;;;0.40;0.40;;;;;;;18.66;68.77;102237.75;5106016;28;20051;-79
2023/05/08 08:14:51;;;;;;;0.32;0.32;;;;;;;18.76;68.66;102236.53;5108310;28;20036;-77
2023/05/08 08:17:18;;;;;;;0.20;0.20;;;;;;;18.92;69.13;102239.63;5112438;28;20031;-79
2023/05/08 08:19:44;;;;;;;0.30;0.30;;;;;;;19.01;68.71;102237.59;5098059;28;20036;-79
2023/05/08 08:22:10;;;;;;;0.10;0.10;;;;;;;19.08;68.42;102242.69;5100465;28;20051;-79
2023/05/08 08:24:36;;;;;;;0.20;0.20;;;;;;;19.17;68.10;102237.97;5108272;28;20019;-79
2023/05/08 08:27:03;;;;;;;0.38;0.38;;;;;;;19.27;67.90;102244.75;5106027;28;20028;-79
2023/05/08 08:29:29;;;;;;;0.10;0.10;;;;;;;19.37;67.83;102245.31;5113028;28;20505;-79
2023/05/08 08:31:55;;;;;;;0.35;0.35;;;;;;;19.48;67.54;102236.91;5107702;28;20487;-79
2023/05/08 08:34:22;;;;;;;1.45;1.38;;;;;;;19.52;67.21;102234.03;5104749;28;20044;-79
2023/05/08 08:36:48;;;;;;;0.17;0.17;;;;;;;19.56;66.87;102235.69;5110198;28;20469;-80
2023/05/08 08:39:14;;;;;;;5.63;1.48;;;;;;;19.63;67.68;102228.28;5109383;28;20050;-79
2023/05/08 08:41:40;;;;;;;0.82;0.82;;;;;;;19.63;67.51;102230.97;5106736;28;20020;-78
2023/05/08 08:44:06;;;;;;;1.45;1.45;;;;;;;19.62;66.93;102229.19;5104886;28;20032;-78
2023/05/08 08:46:34;;;;;;;0.20;0.20;;;;;;;19.69;66.60;102230.75;5105172;28;20047;-78
2023/05/08 08:49:07;;;;;;;0.20;0.20;;;;;;;19.81;67.17;102229.44;5106796;28;20035;-77
2023/05/08 08:51:44;;;;;;;0.35;0.35;;;;;;;19.90;66.71;102238.09;5106316;28;20036;-78
2023/05/08 08:54:13;;;;;;;0.30;0.30;;;;;;;19.99;66.75;102233.25;5109120;27;20619;-80
2023/05/08 08:56:41;;;;;;;0.35;0.35;;;;;;;20.08;67.10;102226.66;5106545;28;20081;-79
2023/05/08 08:59:10;;;;;;;0.52;0.52;;;;;;;20.12;66.20;102222.03;5113190;28;20047;-78
2023/05/08 09:01:39;;;;;;;1.65;1.40;;;;;;;20.18;66.75;102217.28;5109336;28;20031;-79
2023/05/08 09:04:06;;;;;;;0.05;0.05;;;;;;;20.23;66.07;102225.19;5107251;28;20444;-80
2023/05/08 09:06:36;;;;;;;0.40;0.40;;;;;;;20.32;66.20;102223.94;5112055;28;20027;-79
2023/05/08 09:09:06;;;;;;;0.20;0.20;;;;;;;20.40;65.58;102220.94;5107692;28;20457;-82
2023/05/08 09:11:32;;;;;;;0.98;0.98;;;;;;;20.54;66.52;102218.59;5115355;28;20084;-77
2023/05/08 09:13:59;;;;;;;0.55;0.55;;;;;;;20.61;65.78;102213.81;5102657;28;20494;-77
2023/05/08 09:16:26;;;;;;;0.10;0.10;;;;;;;20.70;65.61;102218.84;5114515;28;20139;-77
2023/05/08 09:18:53;;;;;;;0.10;0.10;;;;;;;20.79;65.38;102217.63;5108175;28;20106;-77
2023/05/08 09:21:21;;;;;;;0.50;0.50;;;;;;;20.88;64.93;102221.75;5111544;28;20035;-78
2023/05/08 09:24:03;;;;;;;0.10;0.10;;;;;;;21.05;65.21;102215.63;5115462;28;20066;-77
2023/05/08 09:26:32;;;;;;;0.43;0.43;;;;;;;21.10;65.53;102216.34;5108396;28;20034;-78
2023/05/08 09:31:52;;;;;;;1.65;0.65;;;;;;;21.23;64.10;102217.56;5064048;28;20398;-80
2023/05/08 09:34:27;;;;;;;0.70;0.50;;;;;;;21.27;64.96;102221.88;5046538;28;20067;-80
2023/05/08 09:36:54;;;;;;;0.43;0.43;;;;;;;21.19;63.98;102207.84;5038628;28;20120;-80
2023/05/08 09:39:24;;;;;;;0.98;0.95;;;;;;;21.21;64.28;102215.88;5051435;28;20048;-80
2023/05/08 09:42:06;;;;;;;0.35;0.35;;;;;;;21.27;63.62;102218.28;5046488;28;20032;-79
2023/05/08 09:47:23;;;;;;;0.75;0.30;;;;;;;21.19;64.29;102224.03;5113682;27;20722;-80
2023/05/08 09:50:07;;;;;;;1.67;1.58;;;;;;;21.23;63.70;102225.63;5088495;28;20445;-79
2023/05/08 09:52:35;;;;;;;4.85;1.73;;;;;;;21.13;62.96;102227.88;5084520;28;20020;-80
2023/05/08 09:55:04;;;;;;;0.45;0.45;;;;;;;21.11;63.39;102218.06;5088788;28;20034;-80
2023/05/08 09:57:32;;;;;;;4.72;2.35;;;;;;;21.11;63.72;102218.06;5081908;28;20434;-81
2023/05/08 10:02:55;;;;;;;1.88;1.77;;;;;;;21.55;63.42;102217.97;5061505;28;20857;-79
2023/05/08 10:05:30;;;;;;;0.17;0.17;;;;;;;21.73;62.65;102216.31;5040534;28;20033;-79
2023/05/08 10:07:58;;;;;;;0.17;0.17;;;;;;;21.78;62.88;102214.28;5049822;28;20025;-79
2023/05/08 10:10:26;;;;;;;0.17;0.17;;;;;;;21.80;62.14;102223.16;5040355;28;20021;-80
2023/05/08 10:12:54;;;;;;;0.85;0.85;;;;;;;21.77;61.93;102211.63;5041673;28;20463;-78
2023/05/08 10:15:24;;;;;;;0.20;0.20;;;;;;;21.72;62.39;102216.34;5041120;28;20095;-80
2023/05/08 10:18:01;;;;;;;0.50;0.50;;;;;;;21.64;61.79;102209.47;5032292;28;20507;-78
2023/05/08 10:20:29;;;;;;;0.65;0.65;;;;;;;21.60;62.39;102210.56;5038768;28;20112;-79
2023/05/08 10:22:57;;;;;;;0.85;0.85;;;;;;;21.58;61.82;102209.78;5038199;28;20450;-80
2023/05/08 10:25:24;;;;;;;0.52;0.52;;;;;;;21.54;61.48;102216.22;5029008;28;20030;-78
2023/05/08 10:28:15;;;;;;;1.75;1.13;;;;;;;21.69;61.89;102219.22;5029179;28;20028;-78
2023/05/08 10:30:47;;;;;;;3.53;1.35;;;;;;;21.73;61.82;102220.81;5035020;28;20037;-79
2023/05/08 10:33:14;;;;;;;;;;;;;;;21.97;61.60;102219.69;5036756;28;20053;-80
2023/05/08 10:35:40;;;;;;;1.15;1.15;;;;;;;22.00;61.73;102215.13;5035788;28;19925;-78
2023/05/08 10:38:08;;;;;;;1.13;1.13;;;;;;;22.14;61.19;102215.31;5034117;28;20135;-77
2023/05/08 10:40:36;;;;;;;2.92;1.85;;;;;;;22.23;60.55;102220.31;5029108;28;20555;-77
2023/05/08 10:43:05;;;;;;;0.85;0.47;;;;;;;22.32;60.65;102213.59;5033372;28;20051;-78
2023/05/08 10:45:33;;;;;;;0.10;0.10;;;;;;;22.40;60.47;102219.50;5036982;28;20033;-78
2023/05/08 10:48:15;;;;;;;5.22;1.10;;;;;;;22.44;59.72;102218.44;5041382;28;20026;-80
2023/05/08 10:50:58;;;;;;;0.55;0.55;;;;;;;22.50;59.48;102213.69;5040121;28;20456;-79
2023/05/08 10:56:09;;;;;;;3.93;0.87;;;;;;;22.46;59.07;102219.22;5092890;27;1173683;-79
2023/05/08 10:58:38;;;;;;;0.30;0.30;;;;;;;22.53;60.35;102216.22;5106008;28;20438;-80
2023/05/08 11:01:11;;;;;;;1.48;1.42;;;;;;;22.61;60.07;102209.47;5090339;28;20123;-79
2023/05/08 11:03:41;;;;;;;0.80;0.80;;;;;;;22.73;60.19;102208.00;5089028;28;20028;-79
2023/05/08 11:06:08;;;;;;;0.20;0.20;;;;;;;22.88;59.86;102205.47;5083917;28;20040;-78
2023/05/08 11:08:46;;;;;;;1.23;1.23;;;;;;;23.03;59.00;102206.53;5083527;28;20085;-79
2023/05/08 11:11:27;;;;;;;0.30;0.30;;;;;;;23.14;58.11;102201.47;5091912;28;20059;-77
2023/05/08 11:13:58;;;;;;;0.95;0.95;;;;;;;23.17;57.88;102197.75;5092426;28;20717;-77
2023/05/08 11:19:37;;;;;;;1.73;1.63;;;;;;;23.11;57.24;102198.91;5114158;27;20397;-79
2023/05/08 11:25:06;;;;;;;2.20;1.75;;;;;;;23.08;57.59;102199.06;5109211;27;20444;-78
2023/05/08 11:30:34;;;;;;;0.38;0.38;;;;;;;23.21;57.84;102200.19;5052603;28;20380;-78
2023/05/08 11:41:21;;;;;;;0.25;0.25;;;;;;;23.53;56.54;102186.81;5057292;28;20365;-82
2023/05/08 11:46:52;;;;;;;1.20;1.20;;;;;;;23.40;55.02;102186.59;5109988;27;20371;-78
2023/05/08 11:49:21;;;;;;;0.38;0.38;;;;;;;23.42;56.38;102183.81;5105005;28;20023;-79
2023/05/08 11:51:53;;;;;;;0.60;0.60;;;;;;;23.43;56.09;102180.16;5092566;28;20028;-78
2023/05/08 11:54:21;;;;;;;0.82;0.82;;;;;;;23.39;55.69;102179.44;5110699;28;20023;-78
2023/05/08 11:56:48;;;;;;;0.45;0.45;;;;;;;23.31;55.49;102181.66;5110231;28;20406;-79
2023/05/08 11:59:15;;;;;;;0.73;0.73;;;;;;;23.14;54.75;102178.94;5106810;28;20036;-81
2023/05/08 12:01:42;;;;;;;0.75;0.75;;;;;;;23.01;54.63;102176.88;5094077;28;20085;-82
2023/05/08 12:04:10;;;;;;;0.50;0.50;;;;;;;22.99;54.97;102164.41;5103920;28;20634;-81
2023/05/08 12:06:39;;;;;;;0.10;0.10;;;;;;;23.12;55.24;102170.91;5102051;28;20024;-83
2023/05/08 12:09:15;;;;;;;0.25;0.25;;;;;;;23.41;54.92;102160.44;5103281;28;20073;-82
2023/05/08 12:11:43;;;;;;;0.10;0.10;;;;;;;23.54;54.53;102172.34;5101886;28;20123;-80
2023/05/08 12:14:11;;;;;;;0.90;0.90;;;;;;;23.61;54.05;102170.16;5101413;28;20031;-82
2023/05/08 12:16:38;;;;;;;0.20;0.20;;;;;;;23.60;53.80;102160.28;5102647;28;20058;-81
2023/05/08 12:19:09;;;;;;;0.68;0.68;;;;;;;23.68;53.85;102162.59;5101838;28;20028;-81
2023/05/08 12:21:35;;;;;;;1.90;0.98;;;;;;;23.69;53.95;102164.31;5107671;28;20036;-81
2023/05/08 12:24:06;;;;;;;0.10;0.10;;;;;;;23.75;52.77;102158.59;5102475;28;20024;-81
2023/05/08 12:26:36;;;;;;;0.40;0.40;;;;;;;23.92;53.38;102156.81;5108981;28;20024;-80